Archival Weather

Vermilion Rgnl

Danville, Illinois (KDNV)

Report from: Tuesday, March 26, 2024 4:55 PM CDT
Current time: Sunday, July 14, 2024 6:01 AM CDT

Current weather – Weather history – Daily summaries
Weather forecast

Temperature7.6°C (45.7°F)
Wind chill2.8°C (37.1°F)
Dew point2.1°C (35.8°F)
Winds 21 kts (10.8 m/s, 24.2 mph) West-Southwest (250°)
Wind gusts 25 kts (12.9 m/s, 28.8 mph)
Visibility10 mi. (16.1 km)
Clouds Ceiling: Broken clouds 2,700 ft. (823 m)
Overcast 3,300 ft. (1,006 m)
Altimeter29.70 in.Hg (1006 mB)
Relative humidity68 %
Density altitude-527 ft. (-161 m)
Remarks Fully automated report
Automated weather observing station with precipitation discriminator
Flight conditions Marginal Visual Meteorological Conditions
Raw dataKDNV 262155Z AUTO 25021G25KT 10SM BKN027 OVC033 08/02 A2970 RMK AO2 T00760021
An error has occurred. This application may no longer respond until reloaded. Reload 🗙